createdAt,value
2016-12-07T00:01:08.320Z,21.8
2016-12-07T00:06:12.733Z,21.7
2016-12-07T00:11:16.812Z,21.7
2016-12-07T00:16:20.899Z,21.7
2016-12-07T00:21:25.657Z,21.7
2016-12-07T00:26:29.750Z,21.7
2016-12-07T00:31:33.840Z,21.7
2016-12-07T00:36:38.274Z,21.7
2016-12-07T00:41:42.363Z,21.7
2016-12-07T00:46:46.784Z,21.7
2016-12-07T00:51:50.871Z,21.7
2016-12-07T00:56:55.626Z,21.7
2016-12-07T01:01:59.707Z,21.7
2016-12-07T01:07:03.797Z,21.7
2016-12-07T01:12:08.220Z,21.7
2016-12-07T01:17:12.308Z,21.7
2016-12-07T01:22:16.404Z,21.7
2016-12-07T01:27:20.493Z,21.6
2016-12-07T01:32:24.920Z,21.6
2016-12-07T01:37:29.345Z,21.6
2016-12-07T01:42:33.772Z,21.6
2016-12-07T01:47:38.533Z,21.6
2016-12-07T01:52:42.629Z,21.6
2016-12-07T01:57:46.713Z,21.6
2016-12-07T02:02:50.808Z,21.6
2016-12-07T02:07:55.236Z,21.5
2016-12-07T02:12:59.321Z,21.5
2016-12-07T02:18:03.732Z,21.5
2016-12-07T02:23:08.145Z,21.5
2016-12-07T02:28:12.228Z,21.5
2016-12-07T02:33:16.648Z,21.5
2016-12-07T02:38:20.726Z,21.5
2016-12-07T02:43:25.141Z,21.5
2016-12-07T02:48:29.557Z,21.5
2016-12-07T02:53:33.643Z,21.5
2016-12-07T02:58:37.728Z,21.5
2016-12-07T03:03:42.483Z,21.5
2016-12-07T03:08:46.896Z,21.4
2016-12-07T03:13:50.979Z,21.4
2016-12-07T03:18:55.403Z,21.4
2016-12-07T03:23:59.489Z,21.4
2016-12-07T03:29:03.571Z,21.4
2016-12-07T03:34:07.989Z,21.4
2016-12-07T03:39:12.066Z,21.4
2016-12-07T03:44:16.152Z,21.4
2016-12-07T03:49:20.232Z,21.4
2016-12-07T03:54:24.316Z,21.4
2016-12-07T03:59:28.399Z,21.4
2016-12-07T04:04:32.482Z,21.4
2016-12-07T04:09:36.567Z,21.4
2016-12-07T04:14:40.654Z,21.4
2016-12-07T04:19:45.082Z,21.4
2016-12-07T04:24:49.162Z,21.4
2016-12-07T04:29:53.270Z,21.4
2016-12-07T04:34:57.699Z,21.4
2016-12-07T04:40:02.124Z,21.4
2016-12-07T04:45:06.205Z,21.4
2016-12-07T04:50:10.617Z,21.4
2016-12-07T04:55:14.707Z,21.4
2016-12-07T05:00:19.125Z,21.4
2016-12-07T05:05:23.551Z,21.5
2016-12-07T05:10:27.634Z,21.5
2016-12-07T05:15:32.285Z,21.5
2016-12-07T05:20:36.696Z,21.5
2016-12-07T05:25:41.112Z,21.5
2016-12-07T05:30:45.534Z,21.5
2016-12-07T05:35:49.972Z,21.5
2016-12-07T05:40:54.067Z,21.5
2016-12-07T05:45:58.830Z,21.5
2016-12-07T05:51:03.446Z,21.5
2016-12-07T05:56:07.904Z,21.6
2016-12-07T06:01:11.966Z,21.7
2016-12-07T06:06:16.047Z,21.7
2016-12-07T06:11:20.468Z,21.7
2016-12-07T06:16:24.559Z,21.8
2016-12-07T06:21:28.648Z,21.8
2016-12-07T06:26:32.728Z,21.9
2016-12-07T06:31:37.506Z,21.9
2016-12-07T06:36:41.603Z,22
2016-12-07T06:41:45.695Z,22
2016-12-07T06:46:50.114Z,22
2016-12-07T06:51:54.206Z,22
2016-12-07T06:56:58.628Z,22
2016-12-07T07:02:02.707Z,21.9
2016-12-07T07:07:07.131Z,21.9
2016-12-07T07:12:11.548Z,21.9
2016-12-07T07:17:15.630Z,21.8
2016-12-07T07:22:20.047Z,21.8
2016-12-07T07:27:24.131Z,21.8
2016-12-07T07:32:28.219Z,21.7
2016-12-07T07:37:32.980Z,21.7
2016-12-07T07:42:37.057Z,21.7
2016-12-07T07:47:41.147Z,21.7
2016-12-07T07:52:45.236Z,21.7
2016-12-07T07:57:49.655Z,21.6
2016-12-07T08:02:53.741Z,21.6
2016-12-07T08:07:57.824Z,21.6
2016-12-07T08:13:02.581Z,21.6
2016-12-07T08:18:06.672Z,21.6
2016-12-07T08:23:11.416Z,21.7
2016-12-07T08:28:15.832Z,21.7
2016-12-07T08:33:20.256Z,21.7
2016-12-07T08:38:24.345Z,21.7
2016-12-07T08:43:28.764Z,21.7
2016-12-07T08:48:33.185Z,21.7
2016-12-07T08:53:37.272Z,21.7
2016-12-07T08:58:41.363Z,21.6
2016-12-07T09:03:45.452Z,21.6
2016-12-07T09:08:49.537Z,21.6
2016-12-07T09:13:54.293Z,21.6
2016-12-07T09:18:58.379Z,21.6
2016-12-07T09:24:02.797Z,21.6
2016-12-07T09:29:07.221Z,21.6
2016-12-07T09:34:12.310Z,21.6
2016-12-07T09:39:16.398Z,21.6
2016-12-07T09:44:20.483Z,21.7
2016-12-07T09:49:24.565Z,21.7
2016-12-07T09:54:28.652Z,21.7
2016-12-07T09:59:33.738Z,21.7
2016-12-07T10:04:37.832Z,21.7
2016-12-07T10:09:41.931Z,21.7
2016-12-07T10:14:46.694Z,21.6
2016-12-07T10:19:51.115Z,21.7
2016-12-07T10:24:55.540Z,21.7
2016-12-07T10:29:59.959Z,21.7
2016-12-07T10:35:04.394Z,21.7
2016-12-07T10:40:08.489Z,21.7
2016-12-07T10:45:12.572Z,21.7
2016-12-07T10:50:16.991Z,21.7
2016-12-07T10:55:21.073Z,21.7
2016-12-07T11:00:25.155Z,21.7
2016-12-07T11:05:29.578Z,21.7
2016-12-07T11:10:33.668Z,21.7
2016-12-07T11:15:38.087Z,21.7
2016-12-07T11:20:42.177Z,21.7
2016-12-07T11:25:46.261Z,21.7
2016-12-07T11:30:50.347Z,21.7
2016-12-07T11:35:54.438Z,21.7
2016-12-07T11:40:58.625Z,21.7
2016-12-07T11:46:02.713Z,21.7
2016-12-07T11:51:06.810Z,21.7
2016-12-07T11:56:10.893Z,21.7
2016-12-07T12:01:15.316Z,21.7
2016-12-07T12:06:19.408Z,21.7
2016-12-07T12:11:23.500Z,21.7
2016-12-07T12:16:27.922Z,21.7
2016-12-07T12:21:32.007Z,21.7
2016-12-07T12:26:36.093Z,21.7
2016-12-07T12:31:40.188Z,21.7
2016-12-07T12:36:44.607Z,21.7
2016-12-07T12:41:48.688Z,21.7
2016-12-07T12:46:53.498Z,21.7
2016-12-07T12:51:57.584Z,21.7
2016-12-07T12:57:02.359Z,21.7
2016-12-07T13:02:06.787Z,21.7
2016-12-07T13:07:11.207Z,21.7
2016-12-07T13:12:15.298Z,21.7
2016-12-07T13:17:19.642Z,21.8
2016-12-07T13:22:24.128Z,21.8
2016-12-07T13:27:28.262Z,21.8
2016-12-07T13:32:32.411Z,21.8
2016-12-07T13:37:36.522Z,21.8
2016-12-07T13:42:40.704Z,21.8
2016-12-07T13:47:45.072Z,21.8
2016-12-07T13:52:49.160Z,21.8
2016-12-07T13:57:53.246Z,21.8
2016-12-07T14:02:57.667Z,21.8
2016-12-07T14:08:01.747Z,21.8
2016-12-07T14:13:06.838Z,21.8
2016-12-07T14:18:10.919Z,21.8
2016-12-07T14:23:15.024Z,21.8
2016-12-07T14:28:19.205Z,21.9
2016-12-07T14:33:23.712Z,21.9
2016-12-07T14:38:28.168Z,21.9
2016-12-07T14:43:32.270Z,21.9
2016-12-07T14:48:36.700Z,21.9
2016-12-07T14:53:41.212Z,21.9
2016-12-07T14:58:45.622Z,21.8
2016-12-07T15:03:49.707Z,21.8
2016-12-07T15:08:53.792Z,21.8
2016-12-07T15:13:57.881Z,21.8
2016-12-07T15:19:02.124Z,21.8
2016-12-07T15:24:06.228Z,21.8
2016-12-07T15:29:10.644Z,21.9
2016-12-07T15:34:14.744Z,21.9
2016-12-07T15:39:19.198Z,21.9
2016-12-07T15:44:23.287Z,22
2016-12-07T15:49:27.372Z,22
2016-12-07T15:54:31.465Z,22.1
2016-12-07T15:59:35.624Z,22.1
2016-12-07T16:04:40.357Z,22.1
2016-12-07T16:09:45.129Z,22.1
2016-12-07T16:14:49.550Z,22.1
2016-12-07T16:19:53.967Z,22.1
2016-12-07T16:24:58.047Z,22
2016-12-07T16:30:02.133Z,22
2016-12-07T16:35:06.567Z,22
2016-12-07T16:40:11.008Z,21.9
2016-12-07T16:45:15.775Z,21.9
2016-12-07T16:50:20.208Z,21.9
2016-12-07T16:55:24.291Z,21.9
2016-12-07T17:00:28.374Z,21.9
2016-12-07T17:05:32.456Z,21.9
2016-12-07T17:10:36.543Z,21.8
2016-12-07T17:15:40.964Z,21.9
2016-12-07T17:20:45.730Z,21.9
2016-12-07T17:25:50.478Z,21.9
2016-12-07T17:30:54.563Z,21.9
2016-12-07T17:35:58.649Z,21.9
2016-12-07T17:41:03.064Z,21.9
2016-12-07T17:46:07.150Z,21.9
2016-12-07T17:51:11.233Z,21.9
2016-12-07T17:56:15.654Z,21.9
2016-12-07T18:01:19.733Z,21.9
2016-12-07T18:06:23.817Z,21.9
2016-12-07T18:11:28.571Z,21.9
2016-12-07T18:16:32.996Z,21.9
2016-12-07T18:21:37.423Z,22
2016-12-07T18:26:41.509Z,22
2016-12-07T18:31:46.269Z,22
2016-12-07T18:36:50.351Z,22
2016-12-07T18:41:54.451Z,22
2016-12-07T18:46:59.541Z,22
2016-12-07T18:52:03.961Z,22
2016-12-07T18:57:08.037Z,22
2016-12-07T19:02:12.462Z,22
2016-12-07T19:07:17.173Z,22
2016-12-07T19:12:21.594Z,22
2016-12-07T19:17:25.682Z,22
2016-12-07T19:22:30.441Z,22
2016-12-07T19:27:35.190Z,22
2016-12-07T19:32:39.289Z,22
2016-12-07T19:37:43.388Z,22.1
2016-12-07T19:42:47.816Z,22.1
2016-12-07T19:47:51.895Z,22.1
2016-12-07T19:52:55.974Z,22.1
2016-12-07T19:58:00.068Z,22.1
2016-12-07T20:03:04.158Z,22.1
2016-12-07T20:08:08.244Z,22.1
2016-12-07T20:13:12.668Z,22.2
2016-12-07T20:18:17.426Z,22.2
2016-12-07T20:23:21.508Z,22.2
2016-12-07T20:28:25.929Z,22.3
2016-12-07T20:33:30.015Z,22.3
2016-12-07T20:38:34.119Z,22.3
2016-12-07T20:43:38.562Z,22.3
2016-12-07T20:48:42.983Z,22.3
2016-12-07T20:53:47.070Z,22.3
2016-12-07T20:58:51.152Z,22.3
2016-12-07T21:03:55.604Z,22.3
2016-12-07T21:08:59.696Z,22.3
2016-12-07T21:14:03.781Z,22.2
2016-12-07T21:19:08.212Z,22.2
2016-12-07T21:24:12.308Z,22.2
2016-12-07T21:29:16.391Z,22.2
2016-12-07T21:34:20.490Z,22.2
2016-12-07T21:39:25.585Z,22.2
2016-12-07T21:44:29.719Z,22.2
2016-12-07T21:49:33.836Z,22.2
2016-12-07T21:54:38.260Z,22.2
2016-12-07T21:59:42.351Z,22.2
2016-12-07T22:04:46.770Z,22.2
2016-12-07T22:09:50.855Z,22.1
2016-12-07T22:14:54.949Z,22.1
2016-12-07T22:19:59.717Z,22.2
2016-12-07T22:25:03.819Z,22.2
2016-12-07T22:30:07.905Z,22.2
2016-12-07T22:35:12.335Z,22.1
2016-12-07T22:40:17.085Z,22.1
2016-12-07T22:45:21.173Z,22.1
2016-12-07T22:50:25.599Z,22.1
2016-12-07T22:55:29.691Z,22.1
2016-12-07T23:00:34.158Z,22.1
2016-12-07T23:05:38.581Z,22
2016-12-07T23:10:42.664Z,22
2016-12-07T23:15:46.754Z,22
2016-12-07T23:20:50.839Z,22
2016-12-07T23:25:55.267Z,22
2016-12-07T23:30:59.356Z,22
2016-12-07T23:36:03.440Z,22
2016-12-07T23:41:07.527Z,22
2016-12-07T23:46:12.290Z,21.9
2016-12-07T23:51:16.704Z,21.9
2016-12-07T23:56:21.120Z,21.9
